This is the latest recevied weather packets stored in our database for station/object KB3GVC-13. If no packets are shown the sender has not sent any weather packets the latest 1 day(s).
| Time | Temp. | Humidity | Pressure | Rain* | Wind** | Luminosity | Snow |
|---|---|---|---|---|---|---|---|
| 1836274662 | 18.33° C | 91% | 1019.8 hPa | 0 mm | 0 m/s | - | - |
| 1836274515 | 17.78° C | 92% | 1019.8 hPa | 0 mm | 0 m/s | - | - |
| 1836274360 | 18.33° C | 91% | 1019.9 hPa | 0 mm | 0 m/s | - | - |
| 1836274214 | 17.78° C | 92% | 1019.9 hPa | 0 mm | 0 m/s | - | - |
| 1836274059 | 18.33° C | 91% | 1019.6 hPa | 0 mm | 0 m/s | - | - |
| 1778048497 | 19.44° C | 73% | 1011.4 hPa | 0 mm | 1.34 m/s, 265° | - | - |
| 1778048192 | 20° C | 72% | 1011.5 hPa | 0 mm | 0.89 m/s, 234° | - | - |
| 1778047891 | 20° C | 72% | 1011.7 hPa | 0 mm | 0.89 m/s, 150° | - | - |
| 1778047589 | 20° C | 72% | 1011.5 hPa | 0 mm | 0.45 m/s, 249° | - | - |
| 1778047285 | 20° C | 71% | 1011.5 hPa | 0 mm | 1.34 m/s, 194° | - | - |
| 1778046983 | 20° C | 71% | 1011.5 hPa | 0 mm | 0.45 m/s, 179° | - | - |
| 1778046679 | 20.56° C | 71% | 1011.6 hPa | 0 mm | 0 m/s | - | - |
| 1778046376 | 20.56° C | 70% | 1011.7 hPa | 0 mm | 2.24 m/s, 120° | - | - |
| 1778046072 | 20.56° C | 70% | 1011.7 hPa | 0 mm | 2.24 m/s, 261° | - | - |
| 1778045770 | 20.56° C | 69% | 1011.8 hPa | 0 mm | 1.79 m/s, 122° | - | - |
| 1778045469 | 20.56° C | 69% | 1011.6 hPa | 0 mm | 0.89 m/s, 171° | - | - |
| 1778045166 | 20.56° C | 69% | 1011.7 hPa | 0 mm | 2.24 m/s, 154° | - | - |
| 1778044864 | 20.56° C | 68% | 1011.7 hPa | 0 mm | 1.34 m/s, 205° | - | - |
| 1778044561 | 20.56° C | 67% | 1011.8 hPa | 0 mm | 0.89 m/s, 140° | - | - |
| 1778044257 | 20.56° C | 67% | 1011.8 hPa | 0 mm | 0.45 m/s, 206° | - | - |
| 1778043955 | 20.56° C | 66% | 1012 hPa | 0 mm | 0.45 m/s, 134° | - | - |
| 1778043653 | 21.11° C | 66% | 1011.8 hPa | 0 mm | 0.89 m/s, 121° | - | - |
| 1778043349 | 21.11° C | 65% | 1011.7 hPa | 0 mm | 1.79 m/s, 210° | - | - |
| 1778043046 | 21.11° C | 65% | 1011.8 hPa | 0 mm | 2.68 m/s, 196° | - | - |
| 1778042744 | 21.11° C | 64% | 1011.8 hPa | 0 mm | 0.89 m/s, 185° | - | - |
* Rain latest hour (hover to see other rain measurements)
** Current wind speed in m/s (hover to see current wind gust speed)